createdAt,value
2023-02-18T00:01:41.868Z,14.20
2023-02-18T00:04:47.510Z,18.27
2023-02-18T00:07:53.555Z,15.60
2023-02-18T00:10:59.766Z,12.60
2023-02-18T00:14:07.832Z,14.93
2023-02-18T00:17:15.216Z,15.63
2023-02-18T00:20:21.103Z,13.17
2023-02-18T00:23:27.113Z,12.87
2023-02-18T00:26:33.434Z,13.20
2023-02-18T00:29:39.177Z,16.57
2023-02-18T00:32:46.406Z,14.00
2023-02-18T00:35:52.331Z,12.37
2023-02-18T00:39:00.427Z,13.20
2023-02-18T00:42:06.598Z,12.63
2023-02-18T00:45:12.195Z,12.50
2023-02-18T00:48:19.408Z,13.40
2023-02-18T00:51:26.366Z,14.77
2023-02-18T00:54:32.283Z,13.83
2023-02-18T00:57:38.208Z,11.03
2023-02-18T01:00:44.437Z,11.67
2023-02-18T01:03:51.906Z,11.20
2023-02-18T01:06:57.636Z,8.80
2023-02-18T01:10:03.718Z,12.53
2023-02-18T01:13:12.047Z,9.47
2023-02-18T01:16:18.295Z,10.60
2023-02-18T01:19:25.736Z,10.50
2023-02-18T01:22:31.745Z,7.43
2023-02-18T01:25:38.472Z,9.67
2023-02-18T01:28:45.589Z,6.37
2023-02-18T01:31:52.454Z,5.67
2023-02-18T01:35:01.659Z,6.23
2023-02-18T01:38:08.634Z,5.93
2023-02-18T01:41:14.602Z,5.77
2023-02-18T01:44:23.113Z,8.60
2023-02-18T01:47:28.916Z,5.30
2023-02-18T01:50:39.972Z,5.43
2023-02-18T01:53:55.675Z,6.53
2023-02-18T01:57:04.433Z,6.00
2023-02-18T02:00:13.239Z,6.27
2023-02-18T02:03:19.171Z,6.07
2023-02-18T02:06:26.742Z,6.17
2023-02-18T02:09:34.341Z,5.73
2023-02-18T02:12:51.670Z,6.83
2023-02-18T02:16:04.532Z,6.57
2023-02-18T02:19:37.724Z,6.23
2023-02-18T02:23:37.593Z,6.30
2023-02-18T02:27:09.449Z,5.13
2023-02-18T02:30:48.376Z,5.47
2023-02-18T02:34:34.763Z,4.97
2023-02-18T02:37:48.104Z,4.80
2023-02-18T02:41:01.127Z,5.50
2023-02-18T02:44:15.737Z,4.60
2023-02-18T02:47:28.567Z,4.20
2023-02-18T02:50:41.907Z,4.67
2023-02-18T02:53:47.574Z,4.60
2023-02-18T02:57:07.177Z,3.90
2023-02-18T03:00:15.614Z,3.70
2023-02-18T03:03:38.014Z,3.93
2023-02-18T03:07:03.162Z,3.83
2023-02-18T03:10:27.118Z,3.73
2023-02-18T03:13:51.338Z,5.27
2023-02-18T03:17:03.914Z,3.33
2023-02-18T03:20:17.577Z,4.17
2023-02-18T03:23:29.163Z,3.37
2023-02-18T03:26:38.393Z,3.90
2023-02-18T03:29:49.249Z,3.70
2023-02-18T03:32:58.732Z,3.87
2023-02-18T03:36:05.142Z,3.50
2023-02-18T03:39:16.224Z,3.50
2023-02-18T03:42:27.116Z,3.13
2023-02-18T03:45:33.365Z,3.60
2023-02-18T03:48:39.415Z,3.33
2023-02-18T03:51:45.919Z,3.37
2023-02-18T03:54:53.116Z,3.37
2023-02-18T03:57:59.073Z,3.20
2023-02-18T04:01:05.513Z,2.70
2023-02-18T04:04:11.710Z,2.70
2023-02-18T04:07:17.478Z,2.63
2023-02-18T04:10:24.493Z,2.50
2023-02-18T04:13:30.214Z,2.90
2023-02-18T04:16:35.942Z,3.20
2023-02-18T04:19:42.122Z,4.70
2023-02-18T04:22:48.040Z,3.23
2023-02-18T04:25:55.083Z,3.57
2023-02-18T04:29:00.929Z,3.07
2023-02-18T04:32:07.031Z,3.40
2023-02-18T04:35:13.062Z,3.03
2023-02-18T04:38:19.150Z,3.20
2023-02-18T04:41:26.050Z,2.90
2023-02-18T04:44:31.602Z,2.73
2023-02-18T04:47:37.436Z,2.93
2023-02-18T04:50:43.200Z,3.33
2023-02-18T04:53:48.876Z,3.20
2023-02-18T04:56:55.906Z,3.10
2023-02-18T05:00:01.502Z,3.33
2023-02-18T05:03:07.313Z,3.67
2023-02-18T05:06:13.349Z,3.77
2023-02-18T05:09:19.512Z,3.60
2023-02-18T05:12:26.891Z,4.00
2023-02-18T05:15:33.092Z,5.13
2023-02-18T05:18:38.776Z,8.70
2023-02-18T05:21:45.146Z,6.10
2023-02-18T05:24:50.889Z,6.40
2023-02-18T05:27:57.935Z,7.73
2023-02-18T05:31:03.638Z,6.17
2023-02-18T05:34:09.522Z,7.53
2023-02-18T05:37:15.289Z,7.40
2023-02-18T05:40:21.598Z,9.17
2023-02-18T05:43:28.484Z,11.83
2023-02-18T05:46:34.566Z,7.60
2023-02-18T05:49:41.513Z,11.97
2023-02-18T05:52:47.155Z,11.80
2023-02-18T05:55:53.173Z,9.57
2023-02-18T05:59:00.182Z,13.37
2023-02-18T06:02:05.775Z,11.83
2023-02-18T06:05:12.024Z,11.90
2023-02-18T06:08:17.449Z,13.73
2023-02-18T06:11:23.353Z,9.73
2023-02-18T06:14:30.600Z,13.70
2023-02-18T06:17:36.363Z,16.30
2023-02-18T06:20:42.397Z,13.37
2023-02-18T06:23:48.572Z,10.67
2023-02-18T06:26:54.498Z,16.63
2023-02-18T06:30:01.591Z,11.73
2023-02-18T06:33:07.767Z,10.97
2023-02-18T06:36:14.829Z,11.77
2023-02-18T06:39:20.840Z,12.17
2023-02-18T06:42:26.631Z,15.03
2023-02-18T06:45:33.618Z,12.17
2023-02-18T06:48:39.568Z,12.67
2023-02-18T06:51:45.362Z,8.57
2023-02-18T06:54:51.098Z,15.63
2023-02-18T06:57:57.167Z,12.57
2023-02-18T07:01:04.627Z,9.13
2023-02-18T07:04:10.899Z,15.53
2023-02-18T07:07:16.893Z,12.03
2023-02-18T07:10:23.166Z,17.00
2023-02-18T07:13:28.917Z,10.80
2023-02-18T07:16:36.191Z,14.77
2023-02-18T07:19:42.233Z,14.80
2023-02-18T07:22:48.190Z,11.73
2023-02-18T07:25:53.849Z,10.23
2023-02-18T07:28:59.926Z,7.87
2023-02-18T07:32:07.373Z,17.73
2023-02-18T07:35:15.826Z,9.40
2023-02-18T07:38:21.742Z,13.30
2023-02-18T07:41:27.674Z,11.10
2023-02-18T07:44:33.587Z,12.50
2023-02-18T07:47:41.845Z,7.77
2023-02-18T07:50:48.042Z,16.20
2023-02-18T07:53:54.241Z,9.93
2023-02-18T07:56:59.992Z,12.13
2023-02-18T08:00:06.343Z,11.73
2023-02-18T08:03:13.584Z,13.63
2023-02-18T08:06:23.763Z,15.70
2023-02-18T08:09:29.748Z,12.77
2023-02-18T08:12:35.238Z,12.80
2023-02-18T08:15:41.488Z,9.87
2023-02-18T08:18:49.888Z,10.77
2023-02-18T08:21:55.911Z,10.57
2023-02-18T08:25:02.128Z,15.80
2023-02-18T08:28:08.178Z,9.07
2023-02-18T08:31:20.251Z,10.47
2023-02-18T08:34:27.646Z,4.93
2023-02-18T08:37:52.751Z,7.37
2023-02-18T08:41:03.936Z,7.20
2023-02-18T08:44:09.545Z,6.77
2023-02-18T08:48:17.979Z,10.13
2023-02-18T08:50:42.714Z,8.47
2023-02-18T08:53:49.007Z,9.37
2023-02-18T08:56:57.886Z,10.37
2023-02-18T09:00:03.861Z,11.73
2023-02-18T09:03:09.688Z,3.67
2023-02-18T09:06:16.668Z,7.33
2023-02-18T09:09:22.612Z,9.17
2023-02-18T09:12:29.506Z,9.70
2023-02-18T09:15:35.322Z,11.43
2023-02-18T09:18:41.182Z,8.33
2023-02-18T09:21:48.229Z,7.33
2023-02-18T09:24:53.846Z,10.67
2023-02-18T09:27:59.739Z,12.23
2023-02-18T09:31:07.831Z,8.33
2023-02-18T09:34:14.032Z,6.77
2023-02-18T09:37:21.280Z,9.90
2023-02-18T09:40:30.639Z,11.37
2023-02-18T09:43:39.396Z,9.23
2023-02-18T09:46:51.537Z,9.50
2023-02-18T09:50:01.369Z,8.20
2023-02-18T09:53:08.469Z,8.27
2023-02-18T09:56:17.131Z,13.60
2023-02-18T09:59:26.024Z,7.60
2023-02-18T10:02:32.986Z,10.27
2023-02-18T10:05:44.086Z,8.13
2023-02-18T10:08:53.471Z,8.60
2023-02-18T10:12:03.913Z,11.87
2023-02-18T10:15:21.541Z,10.00
2023-02-18T10:21:41.300Z,9.50
2023-02-18T10:24:52.393Z,7.90
2023-02-18T10:28:00.025Z,13.67
2023-02-18T10:31:11.502Z,11.67
2023-02-18T10:34:25.319Z,9.53
2023-02-18T10:37:46.721Z,11.30
2023-02-18T10:41:00.810Z,8.30
2023-02-18T10:44:14.674Z,6.70
2023-02-18T10:47:32.223Z,12.60
2023-02-18T10:50:41.319Z,18.70
2023-02-18T10:53:49.439Z,6.80
2023-02-18T10:57:02.426Z,9.77
2023-02-18T11:00:19.336Z,10.13
2023-02-18T11:03:26.249Z,10.30
2023-02-18T11:06:35.576Z,8.60
2023-02-18T11:09:46.799Z,8.27
2023-02-18T11:12:58.554Z,9.13
2023-02-18T11:16:07.341Z,7.77
2023-02-18T11:19:34.799Z,16.13
2023-02-18T11:22:41.797Z,14.17
2023-02-18T11:25:58.560Z,13.53
2023-02-18T11:29:10.378Z,13.57
2023-02-18T11:32:17.277Z,11.20
2023-02-18T11:35:26.173Z,9.07
2023-02-18T11:38:38.348Z,14.63
2023-02-18T11:41:47.957Z,8.73
2023-02-18T11:44:58.171Z,11.27
2023-02-18T11:48:10.214Z,9.97
2023-02-18T11:51:21.685Z,8.90
2023-02-18T11:54:30.160Z,11.00
2023-02-18T11:57:38.508Z,9.23
2023-02-18T12:00:47.546Z,6.93
2023-02-18T12:03:58.079Z,10.30
2023-02-18T12:07:16.656Z,6.63
2023-02-18T12:10:27.997Z,6.43
2023-02-18T12:13:37.982Z,11.03
2023-02-18T12:16:57.554Z,12.37
2023-02-18T12:20:24.587Z,9.13
2023-02-18T12:23:37.974Z,6.67
2023-02-18T12:26:55.438Z,10.43
2023-02-18T12:30:30.479Z,7.50
2023-02-18T12:33:50.104Z,10.83
2023-02-18T12:37:06.340Z,8.93
2023-02-18T12:40:34.985Z,5.60
2023-02-18T12:43:55.230Z,15.70
2023-02-18T12:47:29.566Z,6.67
2023-02-18T12:51:12.456Z,9.77
2023-02-18T12:54:39.192Z,11.97
2023-02-18T12:57:52.198Z,9.00
2023-02-18T13:01:10.683Z,15.33
2023-02-18T13:04:36.715Z,15.60
2023-02-18T13:08:00.051Z,14.07
2023-02-18T13:11:20.496Z,8.33
2023-02-18T13:14:33.752Z,17.57
2023-02-18T13:17:43.636Z,8.40
2023-02-18T13:20:53.543Z,12.37
2023-02-18T13:24:05.633Z,10.97
2023-02-18T13:27:23.271Z,10.20
2023-02-18T13:30:34.286Z,11.93
2023-02-18T13:33:49.328Z,8.97
2023-02-18T13:37:08.719Z,7.63
2023-02-18T13:40:21.371Z,9.70
2023-02-18T13:43:32.926Z,17.17
2023-02-18T13:46:50.537Z,11.77
2023-02-18T13:49:56.804Z,8.80
2023-02-18T13:53:25.701Z,10.73
2023-02-18T13:56:35.445Z,10.60
2023-02-18T13:59:45.617Z,16.03
2023-02-18T14:02:58.842Z,9.00
2023-02-18T14:06:15.332Z,16.00
2023-02-18T14:09:39.809Z,18.83
2023-02-18T14:13:23.932Z,12.70
2023-02-18T14:17:08.445Z,14.33
2023-02-18T14:20:45.184Z,8.73
2023-02-18T14:24:02.158Z,9.03
2023-02-18T14:27:17.455Z,9.10
2023-02-18T14:30:35.054Z,7.40
2023-02-18T14:33:44.352Z,9.03
2023-02-18T14:36:58.540Z,9.57
2023-02-18T14:40:20.678Z,17.33
2023-02-18T14:43:48.289Z,7.23
2023-02-18T14:47:11.571Z,10.93
2023-02-18T14:50:21.517Z,13.20
2023-02-18T14:53:28.655Z,10.10
2023-02-18T14:56:39.834Z,14.97
2023-02-18T14:59:47.575Z,10.37
2023-02-18T15:02:56.759Z,12.27
2023-02-18T15:06:02.688Z,6.17
2023-02-18T15:09:16.086Z,10.33
2023-02-18T15:12:25.770Z,13.80
2023-02-18T15:15:35.326Z,9.97
2023-02-18T15:18:47.517Z,17.40
2023-02-18T15:21:57.236Z,19.03
2023-02-18T15:25:04.096Z,17.33
2023-02-18T15:28:23.948Z,19.23
2023-02-18T15:31:31.869Z,10.60
2023-02-18T15:34:40.821Z,13.60
2023-02-18T15:37:48.261Z,11.93
2023-02-18T15:40:56.076Z,13.83
2023-02-18T15:44:05.457Z,13.37
2023-02-18T15:47:11.619Z,10.73
2023-02-18T15:50:22.545Z,13.80
2023-02-18T15:53:28.319Z,16.20
2023-02-18T15:56:38.024Z,14.00
2023-02-18T15:59:54.755Z,11.20
2023-02-18T16:03:13.878Z,12.47
2023-02-18T16:06:24.178Z,9.57
2023-02-18T16:09:34.048Z,9.07
2023-02-18T16:12:41.328Z,12.97
2023-02-18T16:15:49.542Z,11.40
2023-02-18T16:18:55.548Z,5.80
2023-02-18T16:22:06.658Z,6.90
2023-02-18T16:25:18.546Z,12.33
2023-02-18T16:28:28.037Z,6.73
2023-02-18T16:31:34.376Z,6.17
2023-02-18T16:34:40.320Z,6.93
2023-02-18T16:37:50.213Z,5.93
2023-02-18T16:40:56.257Z,11.57
2023-02-18T16:44:02.271Z,8.30
2023-02-18T16:47:09.319Z,12.67
2023-02-18T16:50:19.349Z,8.20
2023-02-18T16:53:26.738Z,8.93
2023-02-18T16:56:35.507Z,8.07
2023-02-18T16:59:41.065Z,7.80
2023-02-18T17:02:49.467Z,10.00
2023-02-18T17:05:55.040Z,10.27
2023-02-18T17:09:02.879Z,13.97
2023-02-18T17:12:08.556Z,13.60
2023-02-18T17:15:27.824Z,12.20
2023-02-18T17:18:33.490Z,11.13
2023-02-18T17:21:39.710Z,10.23
2023-02-18T17:24:46.688Z,7.83
2023-02-18T17:27:53.276Z,9.67
2023-02-18T17:30:59.785Z,8.37
2023-02-18T17:34:09.346Z,13.17
2023-02-18T17:37:15.607Z,14.27
2023-02-18T17:40:26.802Z,11.73
2023-02-18T17:43:32.276Z,12.50
2023-02-18T17:46:38.521Z,11.30
2023-02-18T17:49:44.753Z,14.10
2023-02-18T17:52:51.124Z,16.10
2023-02-18T17:55:58.233Z,11.07
2023-02-18T17:59:04.394Z,11.97
2023-02-18T18:02:25.700Z,8.13
2023-02-18T18:05:34.317Z,9.83
2023-02-18T18:08:40.533Z,8.20
2023-02-18T18:11:47.513Z,10.77
2023-02-18T18:14:52.994Z,11.93
2023-02-18T18:17:59.620Z,8.17
2023-02-18T18:21:06.343Z,8.27
2023-02-18T18:24:13.526Z,10.03
2023-02-18T18:27:20.629Z,12.43
2023-02-18T18:30:28.570Z,7.40
2023-02-18T18:33:35.368Z,9.53
2023-02-18T18:36:41.317Z,6.13
2023-02-18T18:39:47.384Z,10.50
2023-02-18T18:42:55.775Z,5.20
2023-02-18T18:46:01.815Z,6.57
2023-02-18T18:49:08.284Z,5.77
2023-02-18T18:52:17.841Z,7.77
2023-02-18T18:55:28.420Z,6.50
2023-02-18T18:58:35.950Z,6.60
2023-02-18T19:01:41.792Z,7.23
2023-02-18T19:04:47.561Z,6.30
2023-02-18T19:07:53.602Z,6.77
2023-02-18T19:10:59.458Z,7.13
2023-02-18T19:14:06.555Z,6.70
2023-02-18T19:17:12.473Z,7.57
2023-02-18T19:20:21.378Z,6.23
2023-02-18T19:23:27.193Z,6.90
2023-02-18T19:26:32.884Z,6.63
2023-02-18T19:29:40.596Z,9.20
2023-02-18T19:32:46.925Z,7.07
2023-02-18T19:35:52.468Z,7.63
2023-02-18T19:38:58.984Z,7.40
2023-02-18T19:42:04.906Z,7.33
2023-02-18T19:45:12.655Z,7.57
2023-02-18T19:48:20.863Z,6.90
2023-02-18T19:51:26.926Z,6.43
2023-02-18T19:54:33.201Z,6.53
2023-02-18T19:57:39.252Z,5.90
2023-02-18T20:00:46.622Z,5.00
2023-02-18T20:03:53.665Z,5.53
2023-02-18T20:06:59.670Z,5.30
2023-02-18T20:10:06.219Z,5.27
2023-02-18T20:13:12.271Z,5.07
2023-02-18T20:16:20.194Z,4.83
2023-02-18T20:19:27.057Z,7.37
2023-02-18T20:22:32.930Z,5.27
2023-02-18T20:25:40.306Z,4.80
2023-02-18T20:28:46.158Z,4.70
2023-02-18T20:31:53.393Z,5.60
2023-02-18T20:35:00.241Z,6.03
2023-02-18T20:38:06.312Z,5.60
2023-02-18T20:41:14.547Z,6.60
2023-02-18T20:44:22.038Z,6.53
2023-02-18T20:47:29.432Z,6.60
2023-02-18T20:50:35.185Z,6.70
2023-02-18T20:53:46.836Z,6.90
2023-02-18T20:56:53.475Z,6.47
2023-02-18T20:59:59.139Z,5.80
2023-02-18T21:03:06.279Z,5.80
2023-02-18T21:06:15.321Z,5.10
2023-02-18T21:09:21.409Z,4.90
2023-02-18T21:12:27.209Z,5.30
2023-02-18T21:15:35.050Z,5.87
2023-02-18T21:18:42.183Z,5.60
2023-02-18T21:21:48.368Z,5.43
2023-02-18T21:24:54.228Z,7.17
2023-02-18T21:28:00.654Z,7.23
2023-02-18T21:31:06.935Z,6.53
2023-02-18T21:34:15.711Z,8.83
2023-02-18T21:37:21.654Z,6.80
2023-02-18T21:40:27.871Z,8.23
2023-02-18T21:43:34.171Z,8.73
2023-02-18T21:46:41.094Z,9.73
2023-02-18T21:49:49.056Z,8.50
2023-02-18T21:52:54.868Z,8.63
2023-02-18T21:56:10.522Z,6.13
2023-02-18T21:59:16.714Z,9.47
2023-02-18T22:02:24.657Z,8.80
2023-02-18T22:05:31.866Z,9.17
2023-02-18T22:08:37.896Z,7.87
2023-02-18T22:11:44.177Z,11.13
2023-02-18T22:14:49.969Z,7.43
2023-02-18T22:17:55.446Z,10.40
2023-02-18T22:21:07.275Z,11.10
2023-02-18T22:24:14.493Z,12.87
2023-02-18T22:27:20.573Z,15.17
2023-02-18T22:30:26.341Z,14.83
2023-02-18T22:33:32.310Z,13.80
2023-02-18T22:36:39.681Z,15.60
2023-02-18T22:39:45.645Z,12.57
2023-02-18T22:42:51.309Z,16.40
2023-02-18T22:45:57.124Z,14.90
2023-02-18T22:49:04.302Z,18.07
2023-02-18T22:52:11.495Z,16.50
2023-02-18T22:55:17.154Z,18.80
2023-02-18T22:58:23.116Z,16.83
2023-02-18T23:01:30.540Z,19.80
2023-02-18T23:04:36.815Z,13.97
2023-02-18T23:07:44.058Z,18.43
2023-02-18T23:11:00.048Z,17.70
2023-02-18T23:14:21.659Z,16.80
2023-02-18T23:17:27.734Z,16.63
2023-02-18T23:20:51.096Z,18.90
2023-02-18T23:23:58.200Z,17.50
2023-02-18T23:27:04.733Z,16.30
2023-02-18T23:30:12.193Z,15.20
2023-02-18T23:33:17.921Z,24.03
2023-02-18T23:36:25.814Z,21.80
2023-02-18T23:39:32.563Z,20.27
2023-02-18T23:42:38.146Z,20.07
2023-02-18T23:45:44.470Z,23.57
2023-02-18T23:48:53.167Z,22.73
2023-02-18T23:51:59.071Z,20.67
2023-02-18T23:55:07.187Z,19.60
2023-02-18T23:58:13.177Z,17.50
